Pagrindinis puslapis
METAR-TAF:

METAR-TAF

Oro uostai :

Brevig Mission, Aliaska, Jungtinės Amerikos Valstijos

platuma: 65-19-53N, ilguma: 166-27-57W, Aukštis: 11 m

Dabartinis oras

Ataskaita buvo paskelbta 17 minutes, ne 20:56 UTC
Vėjas 11 kt iš Vakarų/Pietvakarių
Temperatūra 8°C
Drėgmė 93%
Slėgis 1018 hPa
Matomumas: 11.3 km

METAR: PFKT 062056Z AUTO 24011KT 7SM 08/07 A3005 RMK AO2 RAE1959 SLP176 P0000 60000 T00780067 53004 $

Laikas: 13:13 (21:13 UTC)


TAF: trūkstamas

Orai ataskaitas ir orų prognozės (METAR, TAF).

turimą stotys yra geltonos ir raudonos taškus žemėlapyje.

Perkelti pele per norėdami pamatyti stoties vardą.

Tada spustelėkite, norėdami matyti oro stebėjimo ir prognozės.

Norėdami pakeisti žemėlapį: spustelėkite ant žalios mygtukų su juodo kryžiaus žemyn,; žalią mygtuką su brūkšneliu, jei norite nutolinti; arba žalių rodyklių gretimoms žemėlapius.


METAR-TAF: